sensor_id;sensor_type;location;lat;lon;timestamp;temperature;humidity
16485;DHT22;8353;47.856;12.344;2024-02-15T00:00:52;10.50;99.90
16485;DHT22;8353;47.856;12.344;2024-02-15T00:03:24;10.50;99.90
16485;DHT22;8353;47.856;12.344;2024-02-15T00:05:55;10.50;99.90
16485;DHT22;8353;47.856;12.344;2024-02-15T00:08:25;10.50;99.90
16485;DHT22;8353;47.856;12.344;2024-02-15T00:10:55;10.50;99.90
16485;DHT22;8353;47.856;12.344;2024-02-15T00:13:26;10.50;99.90
16485;DHT22;8353;47.856;12.344;2024-02-15T00:15:57;10.60;99.90
16485;DHT22;8353;47.856;12.344;2024-02-15T00:18:29;10.50;99.90
16485;DHT22;8353;47.856;12.344;2024-02-15T00:20:59;10.50;99.90
16485;DHT22;8353;47.856;12.344;2024-02-15T00:23:29;10.50;99.90
16485;DHT22;8353;47.856;12.344;2024-02-15T00:26:01;10.50;99.90
16485;DHT22;8353;47.856;12.344;2024-02-15T00:28:31;10.50;99.90
16485;DHT22;8353;47.856;12.344;2024-02-15T00:31:03;10.40;99.90
16485;DHT22;8353;47.856;12.344;2024-02-15T00:33:35;10.50;99.90
16485;DHT22;8353;47.856;12.344;2024-02-15T00:36:06;10.50;99.90
16485;DHT22;8353;47.856;12.344;2024-02-15T00:38:37;10.40;99.90
16485;DHT22;8353;47.856;12.344;2024-02-15T00:41:07;10.40;99.90
16485;DHT22;8353;47.856;12.344;2024-02-15T00:43:38;10.40;99.90
16485;DHT22;8353;47.856;12.344;2024-02-15T00:46:08;10.40;99.90
16485;DHT22;8353;47.856;12.344;2024-02-15T00:48:40;10.40;99.90
16485;DHT22;8353;47.856;12.344;2024-02-15T00:51:11;10.30;99.90
16485;DHT22;8353;47.856;12.344;2024-02-15T00:53:41;10.30;99.90
16485;DHT22;8353;47.856;12.344;2024-02-15T00:56:12;10.40;99.90
16485;DHT22;8353;47.856;12.344;2024-02-15T00:58:42;10.50;99.90
16485;DHT22;8353;47.856;12.344;2024-02-15T01:01:19;10.50;99.90
16485;DHT22;8353;47.856;12.344;2024-02-15T01:03:57;10.40;99.90
16485;DHT22;8353;47.856;12.344;2024-02-15T01:06:27;10.30;99.90
16485;DHT22;8353;47.856;12.344;2024-02-15T01:08:59;10.30;99.90
16485;DHT22;8353;47.856;12.344;2024-02-15T01:11:31;10.30;99.90
16485;DHT22;8353;47.856;12.344;2024-02-15T01:14:02;10.40;99.90
16485;DHT22;8353;47.856;12.344;2024-02-15T01:16:33;10.40;99.90
16485;DHT22;8353;47.856;12.344;2024-02-15T01:19:06;10.50;99.90
16485;DHT22;8353;47.856;12.344;2024-02-15T01:21:36;10.50;99.90
16485;DHT22;8353;47.856;12.344;2024-02-15T01:24:06;10.50;99.90
16485;DHT22;8353;47.856;12.344;2024-02-15T01:26:36;10.50;99.90
16485;DHT22;8353;47.856;12.344;2024-02-15T01:29:07;10.50;99.90
16485;DHT22;8353;47.856;12.344;2024-02-15T01:31:40;10.50;99.90
16485;DHT22;8353;47.856;12.344;2024-02-15T01:34:11;10.50;99.90
16485;DHT22;8353;47.856;12.344;2024-02-15T01:36:41;10.50;99.90
16485;DHT22;8353;47.856;12.344;2024-02-15T01:39:11;10.50;99.90
16485;DHT22;8353;47.856;12.344;2024-02-15T01:41:46;10.50;99.90
16485;DHT22;8353;47.856;12.344;2024-02-15T01:44:17;10.30;99.90
16485;DHT22;8353;47.856;12.344;2024-02-15T01:46:48;10.40;99.90
16485;DHT22;8353;47.856;12.344;2024-02-15T01:49:22;10.40;99.90
16485;DHT22;8353;47.856;12.344;2024-02-15T01:51:54;10.40;99.90
16485;DHT22;8353;47.856;12.344;2024-02-15T01:54:27;10.30;99.90
16485;DHT22;8353;47.856;12.344;2024-02-15T01:56:58;10.30;99.90
16485;DHT22;8353;47.856;12.344;2024-02-15T01:59:28;10.30;99.90
16485;DHT22;8353;47.856;12.344;2024-02-15T02:02:00;10.30;99.90
16485;DHT22;8353;47.856;12.344;2024-02-15T02:04:33;10.30;99.90
16485;DHT22;8353;47.856;12.344;2024-02-15T02:07:03;10.30;99.90
16485;DHT22;8353;47.856;12.344;2024-02-15T02:09:34;10.30;99.90
16485;DHT22;8353;47.856;12.344;2024-02-15T02:12:05;10.40;99.90
16485;DHT22;8353;47.856;12.344;2024-02-15T02:14:36;10.30;99.90
16485;DHT22;8353;47.856;12.344;2024-02-15T02:17:13;10.30;99.90
16485;DHT22;8353;47.856;12.344;2024-02-15T02:19:44;10.30;99.90
16485;DHT22;8353;47.856;12.344;2024-02-15T02:22:14;10.40;99.90
16485;DHT22;8353;47.856;12.344;2024-02-15T02:25:06;10.30;99.90
16485;DHT22;8353;47.856;12.344;2024-02-15T02:27:37;10.30;99.90
16485;DHT22;8353;47.856;12.344;2024-02-15T02:30:13;10.20;99.90
16485;DHT22;8353;47.856;12.344;2024-02-15T02:32:46;10.30;99.90
16485;DHT22;8353;47.856;12.344;2024-02-15T02:35:17;10.30;99.90
16485;DHT22;8353;47.856;12.344;2024-02-15T02:37:49;10.20;99.90
16485;DHT22;8353;47.856;12.344;2024-02-15T02:40:20;10.20;99.90
16485;DHT22;8353;47.856;12.344;2024-02-15T02:42:53;10.30;99.90
16485;DHT22;8353;47.856;12.344;2024-02-15T02:45:25;10.30;99.90
16485;DHT22;8353;47.856;12.344;2024-02-15T02:47:56;10.30;99.90
16485;DHT22;8353;47.856;12.344;2024-02-15T02:50:26;10.20;99.90
16485;DHT22;8353;47.856;12.344;2024-02-15T02:52:56;10.30;99.90
16485;DHT22;8353;47.856;12.344;2024-02-15T02:55:28;10.20;99.90
16485;DHT22;8353;47.856;12.344;2024-02-15T02:58:00;10.30;99.90
16485;DHT22;8353;47.856;12.344;2024-02-15T03:00:30;10.30;99.90
16485;DHT22;8353;47.856;12.344;2024-02-15T03:03:01;10.30;99.90
16485;DHT22;8353;47.856;12.344;2024-02-15T03:05:31;10.20;99.90
16485;DHT22;8353;47.856;12.344;2024-02-15T03:08:01;10.30;99.90
16485;DHT22;8353;47.856;12.344;2024-02-15T03:10:36;10.30;99.90
16485;DHT22;8353;47.856;12.344;2024-02-15T03:13:07;10.30;99.90
16485;DHT22;8353;47.856;12.344;2024-02-15T03:15:40;10.20;99.90
16485;DHT22;8353;47.856;12.344;2024-02-15T03:18:11;10.20;99.90
16485;DHT22;8353;47.856;12.344;2024-02-15T03:20:41;10.20;99.90
16485;DHT22;8353;47.856;12.344;2024-02-15T03:23:13;10.20;99.90
16485;DHT22;8353;47.856;12.344;2024-02-15T03:25:44;10.20;99.90
16485;DHT22;8353;47.856;12.344;2024-02-15T03:28:15;10.20;99.90
16485;DHT22;8353;47.856;12.344;2024-02-15T03:30:45;10.30;99.90
16485;DHT22;8353;47.856;12.344;2024-02-15T03:33:15;10.30;99.90
16485;DHT22;8353;47.856;12.344;2024-02-15T03:35:46;10.30;99.90
16485;DHT22;8353;47.856;12.344;2024-02-15T03:38:16;10.30;99.90
16485;DHT22;8353;47.856;12.344;2024-02-15T03:40:48;10.20;99.90
16485;DHT22;8353;47.856;12.344;2024-02-15T03:43:18;10.20;99.90
16485;DHT22;8353;47.856;12.344;2024-02-15T03:45:47;10.30;99.90
16485;DHT22;8353;47.856;12.344;2024-02-15T03:48:18;10.30;99.90
16485;DHT22;8353;47.856;12.344;2024-02-15T03:50:48;10.20;99.90
16485;DHT22;8353;47.856;12.344;2024-02-15T03:53:19;10.20;99.90
16485;DHT22;8353;47.856;12.344;2024-02-15T03:55:51;10.20;99.90
16485;DHT22;8353;47.856;12.344;2024-02-15T03:58:22;10.10;99.90
16485;DHT22;8353;47.856;12.344;2024-02-15T04:00:52;10.20;99.90
16485;DHT22;8353;47.856;12.344;2024-02-15T04:03:25;10.10;99.90
16485;DHT22;8353;47.856;12.344;2024-02-15T04:05:57;10.10;99.90
16485;DHT22;8353;47.856;12.344;2024-02-15T04:08:29;10.00;99.90
16485;DHT22;8353;47.856;12.344;2024-02-15T04:11:00;10.00;99.90
16485;DHT22;8353;47.856;12.344;2024-02-15T04:13:31;10.10;99.90
16485;DHT22;8353;47.856;12.344;2024-02-15T04:16:02;10.10;99.90
16485;DHT22;8353;47.856;12.344;2024-02-15T04:18:34;10.10;99.90
16485;DHT22;8353;47.856;12.344;2024-02-15T04:21:04;10.10;99.90
16485;DHT22;8353;47.856;12.344;2024-02-15T04:23:36;10.00;99.90
16485;DHT22;8353;47.856;12.344;2024-02-15T04:26:08;9.90;99.90
16485;DHT22;8353;47.856;12.344;2024-02-15T04:28:38;10.00;99.90
16485;DHT22;8353;47.856;12.344;2024-02-15T04:31:08;10.00;99.90
16485;DHT22;8353;47.856;12.344;2024-02-15T04:33:39;10.10;99.90
16485;DHT22;8353;47.856;12.344;2024-02-15T04:36:10;10.10;99.90
16485;DHT22;8353;47.856;12.344;2024-02-15T04:38:41;10.10;99.90
16485;DHT22;8353;47.856;12.344;2024-02-15T04:41:12;10.10;99.90
16485;DHT22;8353;47.856;12.344;2024-02-15T04:43:43;10.10;99.90
16485;DHT22;8353;47.856;12.344;2024-02-15T04:46:15;10.10;99.90
16485;DHT22;8353;47.856;12.344;2024-02-15T04:48:46;10.00;99.90
16485;DHT22;8353;47.856;12.344;2024-02-15T04:51:18;10.00;99.90
16485;DHT22;8353;47.856;12.344;2024-02-15T04:53:49;10.00;99.90
16485;DHT22;8353;47.856;12.344;2024-02-15T04:56:21;9.90;99.90
16485;DHT22;8353;47.856;12.344;2024-02-15T04:58:52;9.80;99.90
16485;DHT22;8353;47.856;12.344;2024-02-15T05:01:23;9.90;99.90
16485;DHT22;8353;47.856;12.344;2024-02-15T05:03:53;9.90;99.90
16485;DHT22;8353;47.856;12.344;2024-02-15T05:06:24;9.90;99.90
16485;DHT22;8353;47.856;12.344;2024-02-15T05:08:58;10.00;99.90
16485;DHT22;8353;47.856;12.344;2024-02-15T05:11:30;9.90;99.90
16485;DHT22;8353;47.856;12.344;2024-02-15T05:14:00;10.10;99.90
16485;DHT22;8353;47.856;12.344;2024-02-15T05:16:32;10.10;99.90
16485;DHT22;8353;47.856;12.344;2024-02-15T05:19:05;10.10;99.90
16485;DHT22;8353;47.856;12.344;2024-02-15T05:21:36;10.10;99.90
16485;DHT22;8353;47.856;12.344;2024-02-15T05:24:10;10.00;99.90
16485;DHT22;8353;47.856;12.344;2024-02-15T05:26:43;9.90;99.90
16485;DHT22;8353;47.856;12.344;2024-02-15T05:29:16;9.90;99.90
16485;DHT22;8353;47.856;12.344;2024-02-15T05:31:47;9.90;99.90
16485;DHT22;8353;47.856;12.344;2024-02-15T05:34:19;9.90;99.90
16485;DHT22;8353;47.856;12.344;2024-02-15T05:36:50;9.90;99.90
16485;DHT22;8353;47.856;12.344;2024-02-15T05:39:20;10.00;99.90
16485;DHT22;8353;47.856;12.344;2024-02-15T05:41:52;10.00;99.90
16485;DHT22;8353;47.856;12.344;2024-02-15T05:44:22;10.00;99.90
16485;DHT22;8353;47.856;12.344;2024-02-15T05:46:54;9.90;99.90
16485;DHT22;8353;47.856;12.344;2024-02-15T05:49:25;9.80;99.90
16485;DHT22;8353;47.856;12.344;2024-02-15T05:51:55;9.90;99.90
16485;DHT22;8353;47.856;12.344;2024-02-15T05:54:26;9.90;99.90
16485;DHT22;8353;47.856;12.344;2024-02-15T05:56:58;9.90;99.90
16485;DHT22;8353;47.856;12.344;2024-02-15T05:59:29;9.80;99.90
16485;DHT22;8353;47.856;12.344;2024-02-15T06:01:59;9.80;99.90
16485;DHT22;8353;47.856;12.344;2024-02-15T06:04:31;9.70;99.90
16485;DHT22;8353;47.856;12.344;2024-02-15T06:07:01;9.80;99.90
16485;DHT22;8353;47.856;12.344;2024-02-15T06:09:35;9.80;99.90
16485;DHT22;8353;47.856;12.344;2024-02-15T06:12:07;9.80;99.90
16485;DHT22;8353;47.856;12.344;2024-02-15T06:14:38;9.80;99.90
16485;DHT22;8353;47.856;12.344;2024-02-15T06:17:09;9.90;99.90
16485;DHT22;8353;47.856;12.344;2024-02-15T06:19:39;9.90;99.90
16485;DHT22;8353;47.856;12.344;2024-02-15T06:22:10;9.90;99.90
16485;DHT22;8353;47.856;12.344;2024-02-15T06:24:41;9.80;99.90
16485;DHT22;8353;47.856;12.344;2024-02-15T06:27:13;9.70;99.90
16485;DHT22;8353;47.856;12.344;2024-02-15T06:29:44;9.80;99.90
16485;DHT22;8353;47.856;12.344;2024-02-15T06:32:32;9.80;99.90
16485;DHT22;8353;47.856;12.344;2024-02-15T06:35:20;9.80;99.90
16485;DHT22;8353;47.856;12.344;2024-02-15T06:38:07;9.70;99.90
16485;DHT22;8353;47.856;12.344;2024-02-15T06:40:55;9.70;99.90
16485;DHT22;8353;47.856;12.344;2024-02-15T06:43:27;9.70;99.90
16485;DHT22;8353;47.856;12.344;2024-02-15T06:45:57;9.80;99.90
16485;DHT22;8353;47.856;12.344;2024-02-15T06:48:27;9.80;99.90
16485;DHT22;8353;47.856;12.344;2024-02-15T06:50:58;9.80;99.90
16485;DHT22;8353;47.856;12.344;2024-02-15T06:53:29;9.70;99.90
16485;DHT22;8353;47.856;12.344;2024-02-15T06:55:59;9.70;99.90
16485;DHT22;8353;47.856;12.344;2024-02-15T06:58:33;9.70;99.90
16485;DHT22;8353;47.856;12.344;2024-02-15T07:01:03;9.60;99.90
16485;DHT22;8353;47.856;12.344;2024-02-15T07:03:34;9.70;99.90
16485;DHT22;8353;47.856;12.344;2024-02-15T07:06:04;9.70;99.90
16485;DHT22;8353;47.856;12.344;2024-02-15T07:08:34;9.80;99.90
16485;DHT22;8353;47.856;12.344;2024-02-15T07:11:06;9.80;99.90
16485;DHT22;8353;47.856;12.344;2024-02-15T07:13:39;10.00;99.90
16485;DHT22;8353;47.856;12.344;2024-02-15T07:16:10;10.10;99.90
16485;DHT22;8353;47.856;12.344;2024-02-15T07:18:43;10.20;99.90
16485;DHT22;8353;47.856;12.344;2024-02-15T07:21:15;10.20;99.90
16485;DHT22;8353;47.856;12.344;2024-02-15T07:23:45;10.20;99.90
16485;DHT22;8353;47.856;12.344;2024-02-15T07:26:16;10.20;99.90
16485;DHT22;8353;47.856;12.344;2024-02-15T07:28:50;10.40;99.90
16485;DHT22;8353;47.856;12.344;2024-02-15T07:31:22;10.40;99.90
16485;DHT22;8353;47.856;12.344;2024-02-15T07:33:53;10.60;99.90
16485;DHT22;8353;47.856;12.344;2024-02-15T07:36:24;10.60;99.90
16485;DHT22;8353;47.856;12.344;2024-02-15T07:38:54;10.70;99.90
16485;DHT22;8353;47.856;12.344;2024-02-15T07:41:28;10.70;99.90
16485;DHT22;8353;47.856;12.344;2024-02-15T07:43:59;10.80;99.90
16485;DHT22;8353;47.856;12.344;2024-02-15T07:46:30;10.70;99.90
16485;DHT22;8353;47.856;12.344;2024-02-15T07:49:00;10.80;99.90
16485;DHT22;8353;47.856;12.344;2024-02-15T07:51:31;10.90;99.90
16485;DHT22;8353;47.856;12.344;2024-02-15T07:54:02;11.00;99.90
16485;DHT22;8353;47.856;12.344;2024-02-15T07:56:33;11.10;99.90
16485;DHT22;8353;47.856;12.344;2024-02-15T07:59:05;11.10;99.90
16485;DHT22;8353;47.856;12.344;2024-02-15T08:01:36;11.10;99.90
16485;DHT22;8353;47.856;12.344;2024-02-15T08:04:06;11.20;99.90
16485;DHT22;8353;47.856;12.344;2024-02-15T08:06:37;11.30;99.90
16485;DHT22;8353;47.856;12.344;2024-02-15T08:09:08;11.30;99.90
16485;DHT22;8353;47.856;12.344;2024-02-15T08:11:43;11.30;99.90
16485;DHT22;8353;47.856;12.344;2024-02-15T08:14:15;11.40;99.90
16485;DHT22;8353;47.856;12.344;2024-02-15T08:16:45;11.40;99.90
16485;DHT22;8353;47.856;12.344;2024-02-15T08:19:16;11.30;99.90
16485;DHT22;8353;47.856;12.344;2024-02-15T08:21:46;11.40;99.90
16485;DHT22;8353;47.856;12.344;2024-02-15T08:24:19;11.50;99.90
16485;DHT22;8353;47.856;12.344;2024-02-15T08:26:50;11.60;99.90
16485;DHT22;8353;47.856;12.344;2024-02-15T08:29:23;11.60;99.90
16485;DHT22;8353;47.856;12.344;2024-02-15T08:31:53;11.70;99.90
16485;DHT22;8353;47.856;12.344;2024-02-15T08:34:23;11.80;99.90
16485;DHT22;8353;47.856;12.344;2024-02-15T08:36:53;11.80;99.90
16485;DHT22;8353;47.856;12.344;2024-02-15T08:39:24;12.00;99.90
16485;DHT22;8353;47.856;12.344;2024-02-15T08:41:54;12.10;99.90
16485;DHT22;8353;47.856;12.344;2024-02-15T08:44:26;12.20;99.90
16485;DHT22;8353;47.856;12.344;2024-02-15T08:46:57;12.30;99.90
16485;DHT22;8353;47.856;12.344;2024-02-15T08:49:27;12.50;99.90
16485;DHT22;8353;47.856;12.344;2024-02-15T08:51:59;12.70;99.90
16485;DHT22;8353;47.856;12.344;2024-02-15T08:54:30;12.70;99.90
16485;DHT22;8353;47.856;12.344;2024-02-15T08:57:01;12.70;99.90
16485;DHT22;8353;47.856;12.344;2024-02-15T08:59:34;12.70;99.90
16485;DHT22;8353;47.856;12.344;2024-02-15T09:02:04;12.90;99.90
16485;DHT22;8353;47.856;12.344;2024-02-15T09:04:34;13.00;99.90
16485;DHT22;8353;47.856;12.344;2024-02-15T09:07:05;13.10;99.90
16485;DHT22;8353;47.856;12.344;2024-02-15T09:09:36;13.30;99.90
16485;DHT22;8353;47.856;12.344;2024-02-15T09:12:08;13.30;99.90
16485;DHT22;8353;47.856;12.344;2024-02-15T09:14:40;13.60;99.90
16485;DHT22;8353;47.856;12.344;2024-02-15T09:17:11;13.50;99.90
16485;DHT22;8353;47.856;12.344;2024-02-15T09:19:42;13.80;99.90
16485;DHT22;8353;47.856;12.344;2024-02-15T09:22:12;13.80;99.90
16485;DHT22;8353;47.856;12.344;2024-02-15T09:24:42;13.90;99.90
16485;DHT22;8353;47.856;12.344;2024-02-15T09:27:13;14.00;99.90
16485;DHT22;8353;47.856;12.344;2024-02-15T09:29:45;13.90;99.90
16485;DHT22;8353;47.856;12.344;2024-02-15T09:32:15;14.00;99.90
16485;DHT22;8353;47.856;12.344;2024-02-15T09:34:46;14.00;99.90
16485;DHT22;8353;47.856;12.344;2024-02-15T09:37:16;14.00;99.90
16485;DHT22;8353;47.856;12.344;2024-02-15T09:39:46;14.00;99.90
16485;DHT22;8353;47.856;12.344;2024-02-15T09:42:16;14.10;99.90
16485;DHT22;8353;47.856;12.344;2024-02-15T09:44:48;14.30;99.90
16485;DHT22;8353;47.856;12.344;2024-02-15T09:47:20;14.30;99.90
16485;DHT22;8353;47.856;12.344;2024-02-15T09:49:52;14.40;99.90
16485;DHT22;8353;47.856;12.344;2024-02-15T09:52:23;14.40;99.90
16485;DHT22;8353;47.856;12.344;2024-02-15T09:54:55;14.50;99.90
16485;DHT22;8353;47.856;12.344;2024-02-15T09:57:26;14.60;99.90
16485;DHT22;8353;47.856;12.344;2024-02-15T09:59:58;14.60;99.90
16485;DHT22;8353;47.856;12.344;2024-02-15T10:02:30;14.60;99.90
16485;DHT22;8353;47.856;12.344;2024-02-15T10:05:02;14.70;99.90
16485;DHT22;8353;47.856;12.344;2024-02-15T10:07:32;14.70;99.90
16485;DHT22;8353;47.856;12.344;2024-02-15T10:10:15;14.80;99.90
16485;DHT22;8353;47.856;12.344;2024-02-15T10:12:46;14.90;99.90
16485;DHT22;8353;47.856;12.344;2024-02-15T10:15:29;15.10;99.90
16485;DHT22;8353;47.856;12.344;2024-02-15T10:18:01;15.20;99.90
16485;DHT22;8353;47.856;12.344;2024-02-15T10:20:32;15.40;99.90
16485;DHT22;8353;47.856;12.344;2024-02-15T10:23:10;15.40;99.90
16485;DHT22;8353;47.856;12.344;2024-02-15T10:25:40;15.50;99.90
16485;DHT22;8353;47.856;12.344;2024-02-15T10:28:11;15.50;99.90
16485;DHT22;8353;47.856;12.344;2024-02-15T10:30:46;15.60;99.90
16485;DHT22;8353;47.856;12.344;2024-02-15T10:33:18;15.70;99.90
16485;DHT22;8353;47.856;12.344;2024-02-15T10:35:50;15.80;99.90
16485;DHT22;8353;47.856;12.344;2024-02-15T10:38:25;15.90;99.90
16485;DHT22;8353;47.856;12.344;2024-02-15T10:41:03;15.70;99.90
16485;DHT22;8353;47.856;12.344;2024-02-15T10:43:35;15.60;99.90
16485;DHT22;8353;47.856;12.344;2024-02-15T10:46:08;15.60;99.90
16485;DHT22;8353;47.856;12.344;2024-02-15T10:48:39;15.50;99.90
16485;DHT22;8353;47.856;12.344;2024-02-15T10:51:13;15.60;99.90
16485;DHT22;8353;47.856;12.344;2024-02-15T10:53:47;15.70;99.90
16485;DHT22;8353;47.856;12.344;2024-02-15T10:56:26;15.80;99.90
16485;DHT22;8353;47.856;12.344;2024-02-15T10:59:16;15.70;99.90
16485;DHT22;8353;47.856;12.344;2024-02-15T11:01:49;15.80;99.90
16485;DHT22;8353;47.856;12.344;2024-02-15T11:04:20;16.00;99.90
16485;DHT22;8353;47.856;12.344;2024-02-15T11:06:54;16.20;99.90
16485;DHT22;8353;47.856;12.344;2024-02-15T11:09:25;16.10;99.90
16485;DHT22;8353;47.856;12.344;2024-02-15T11:11:56;16.00;99.90
16485;DHT22;8353;47.856;12.344;2024-02-15T11:14:28;16.10;99.90
16485;DHT22;8353;47.856;12.344;2024-02-15T11:17:01;16.10;99.90
16485;DHT22;8353;47.856;12.344;2024-02-15T11:19:42;16.10;99.90
16485;DHT22;8353;47.856;12.344;2024-02-15T11:22:16;16.00;99.90
16485;DHT22;8353;47.856;12.344;2024-02-15T11:24:47;16.20;99.90
16485;DHT22;8353;47.856;12.344;2024-02-15T11:27:25;16.20;99.90
16485;DHT22;8353;47.856;12.344;2024-02-15T11:29:58;16.40;99.90
16485;DHT22;8353;47.856;12.344;2024-02-15T11:32:38;16.40;99.90
16485;DHT22;8353;47.856;12.344;2024-02-15T11:35:14;16.50;99.90
16485;DHT22;8353;47.856;12.344;2024-02-15T11:38:06;16.30;99.90
16485;DHT22;8353;47.856;12.344;2024-02-15T11:41:05;16.30;99.90
16485;DHT22;8353;47.856;12.344;2024-02-15T11:43:46;16.20;99.90
16485;DHT22;8353;47.856;12.344;2024-02-15T11:46:19;16.00;99.90
16485;DHT22;8353;47.856;12.344;2024-02-15T11:48:52;16.20;99.90
16485;DHT22;8353;47.856;12.344;2024-02-15T11:51:26;16.50;99.90
16485;DHT22;8353;47.856;12.344;2024-02-15T11:54:02;16.70;99.90
16485;DHT22;8353;47.856;12.344;2024-02-15T11:56:51;16.70;99.90
16485;DHT22;8353;47.856;12.344;2024-02-15T11:59:23;16.80;99.90
16485;DHT22;8353;47.856;12.344;2024-02-15T12:02:04;16.90;99.90
16485;DHT22;8353;47.856;12.344;2024-02-15T12:04:53;17.00;99.90
16485;DHT22;8353;47.856;12.344;2024-02-15T12:07:41;17.00;99.90
16485;DHT22;8353;47.856;12.344;2024-02-15T12:10:29;17.10;99.90
16485;DHT22;8353;47.856;12.344;2024-02-15T12:13:18;17.40;99.90
16485;DHT22;8353;47.856;12.344;2024-02-15T12:16:20;17.30;99.90
16485;DHT22;8353;47.856;12.344;2024-02-15T12:19:08;17.40;99.90
16485;DHT22;8353;47.856;12.344;2024-02-15T12:21:41;17.50;99.90
16485;DHT22;8353;47.856;12.344;2024-02-15T12:24:11;17.60;99.90
16485;DHT22;8353;47.856;12.344;2024-02-15T12:26:43;17.70;99.90
16485;DHT22;8353;47.856;12.344;2024-02-15T12:29:17;17.70;99.90
16485;DHT22;8353;47.856;12.344;2024-02-15T12:31:47;17.80;99.90
16485;DHT22;8353;47.856;12.344;2024-02-15T12:34:20;17.90;99.90
16485;DHT22;8353;47.856;12.344;2024-02-15T12:37:05;17.90;99.90
16485;DHT22;8353;47.856;12.344;2024-02-15T12:39:35;17.90;99.90
16485;DHT22;8353;47.856;12.344;2024-02-15T12:42:07;17.80;99.90
16485;DHT22;8353;47.856;12.344;2024-02-15T12:44:45;17.90;99.90
16485;DHT22;8353;47.856;12.344;2024-02-15T12:47:20;17.90;99.90
16485;DHT22;8353;47.856;12.344;2024-02-15T12:49:51;18.00;99.90
16485;DHT22;8353;47.856;12.344;2024-02-15T12:52:37;18.00;99.90
16485;DHT22;8353;47.856;12.344;2024-02-15T12:55:16;18.10;99.90
16485;DHT22;8353;47.856;12.344;2024-02-15T12:57:48;18.00;99.90
16485;DHT22;8353;47.856;12.344;2024-02-15T13:00:21;17.90;99.90
16485;DHT22;8353;47.856;12.344;2024-02-15T13:02:52;17.80;99.90
16485;DHT22;8353;47.856;12.344;2024-02-15T13:05:25;18.00;99.90
16485;DHT22;8353;47.856;12.344;2024-02-15T13:07:57;18.10;99.90
16485;DHT22;8353;47.856;12.344;2024-02-15T13:10:28;18.10;99.90
16485;DHT22;8353;47.856;12.344;2024-02-15T13:13:00;18.00;99.90
16485;DHT22;8353;47.856;12.344;2024-02-15T13:15:30;18.10;99.90
16485;DHT22;8353;47.856;12.344;2024-02-15T13:18:03;18.20;99.90
16485;DHT22;8353;47.856;12.344;2024-02-15T13:20:34;18.20;99.90
16485;DHT22;8353;47.856;12.344;2024-02-15T13:23:08;18.10;99.90
16485;DHT22;8353;47.856;12.344;2024-02-15T13:25:43;18.10;99.90
16485;DHT22;8353;47.856;12.344;2024-02-15T13:28:15;18.20;99.90
16485;DHT22;8353;47.856;12.344;2024-02-15T13:30:46;18.40;99.90
16485;DHT22;8353;47.856;12.344;2024-02-15T13:33:18;18.40;99.90
16485;DHT22;8353;47.856;12.344;2024-02-15T13:35:49;18.40;99.90
16485;DHT22;8353;47.856;12.344;2024-02-15T13:38:21;18.40;99.90
16485;DHT22;8353;47.856;12.344;2024-02-15T13:40:52;18.40;99.90
16485;DHT22;8353;47.856;12.344;2024-02-15T13:43:24;18.40;99.90
16485;DHT22;8353;47.856;12.344;2024-02-15T13:45:54;18.40;99.90
16485;DHT22;8353;47.856;12.344;2024-02-15T13:48:25;18.20;99.90
16485;DHT22;8353;47.856;12.344;2024-02-15T13:50:59;18.10;99.90
16485;DHT22;8353;47.856;12.344;2024-02-15T13:53:30;18.00;99.90
16485;DHT22;8353;47.856;12.344;2024-02-15T13:56:01;17.90;99.90
16485;DHT22;8353;47.856;12.344;2024-02-15T13:58:31;17.90;99.90
16485;DHT22;8353;47.856;12.344;2024-02-15T14:01:02;17.80;99.90
16485;DHT22;8353;47.856;12.344;2024-02-15T14:03:33;17.80;99.90
16485;DHT22;8353;47.856;12.344;2024-02-15T14:06:04;18.00;99.90
16485;DHT22;8353;47.856;12.344;2024-02-15T14:08:35;18.00;99.90
16485;DHT22;8353;47.856;12.344;2024-02-15T14:11:06;18.20;99.90
16485;DHT22;8353;47.856;12.344;2024-02-15T14:13:38;18.20;99.90
16485;DHT22;8353;47.856;12.344;2024-02-15T14:16:09;18.40;99.90
16485;DHT22;8353;47.856;12.344;2024-02-15T14:18:39;18.50;99.90
16485;DHT22;8353;47.856;12.344;2024-02-15T14:21:13;18.40;99.90
16485;DHT22;8353;47.856;12.344;2024-02-15T14:23:46;18.40;99.90
16485;DHT22;8353;47.856;12.344;2024-02-15T14:26:17;18.50;99.90
16485;DHT22;8353;47.856;12.344;2024-02-15T14:28:48;18.40;99.90
16485;DHT22;8353;47.856;12.344;2024-02-15T14:31:19;18.40;99.90
16485;DHT22;8353;47.856;12.344;2024-02-15T14:34:09;18.40;99.90
16485;DHT22;8353;47.856;12.344;2024-02-15T14:36:39;18.30;99.90
16485;DHT22;8353;47.856;12.344;2024-02-15T14:39:13;18.10;99.90
16485;DHT22;8353;47.856;12.344;2024-02-15T14:41:43;18.10;99.90
16485;DHT22;8353;47.856;12.344;2024-02-15T14:44:14;18.20;99.90
16485;DHT22;8353;47.856;12.344;2024-02-15T14:46:45;18.30;99.90
16485;DHT22;8353;47.856;12.344;2024-02-15T14:49:15;18.20;99.90
16485;DHT22;8353;47.856;12.344;2024-02-15T14:51:47;17.90;99.90
16485;DHT22;8353;47.856;12.344;2024-02-15T14:54:21;17.80;99.90
16485;DHT22;8353;47.856;12.344;2024-02-15T14:56:52;17.80;99.90
16485;DHT22;8353;47.856;12.344;2024-02-15T14:59:23;17.70;99.90
16485;DHT22;8353;47.856;12.344;2024-02-15T15:01:54;17.80;99.90
16485;DHT22;8353;47.856;12.344;2024-02-15T15:04:26;17.80;99.90
16485;DHT22;8353;47.856;12.344;2024-02-15T15:07:03;17.70;99.90
16485;DHT22;8353;47.856;12.344;2024-02-15T15:09:53;17.70;99.90
16485;DHT22;8353;47.856;12.344;2024-02-15T15:12:43;17.70;99.90
16485;DHT22;8353;47.856;12.344;2024-02-15T15:15:14;17.60;99.90
16485;DHT22;8353;47.856;12.344;2024-02-15T15:17:47;17.60;99.90
16485;DHT22;8353;47.856;12.344;2024-02-15T15:20:18;17.70;99.90
16485;DHT22;8353;47.856;12.344;2024-02-15T15:22:49;17.70;99.90
16485;DHT22;8353;47.856;12.344;2024-02-15T15:25:21;17.60;99.90
16485;DHT22;8353;47.856;12.344;2024-02-15T15:27:53;17.40;99.90
16485;DHT22;8353;47.856;12.344;2024-02-15T15:30:23;17.40;99.90
16485;DHT22;8353;47.856;12.344;2024-02-15T15:32:54;17.40;99.90
16485;DHT22;8353;47.856;12.344;2024-02-15T15:35:26;17.30;99.90
16485;DHT22;8353;47.856;12.344;2024-02-15T15:37:57;17.20;99.90
16485;DHT22;8353;47.856;12.344;2024-02-15T15:40:30;17.20;99.90
16485;DHT22;8353;47.856;12.344;2024-02-15T15:43:01;17.20;99.90
16485;DHT22;8353;47.856;12.344;2024-02-15T15:45:34;17.20;99.90
16485;DHT22;8353;47.856;12.344;2024-02-15T15:48:05;16.90;99.90
16485;DHT22;8353;47.856;12.344;2024-02-15T15:50:35;17.00;99.90
16485;DHT22;8353;47.856;12.344;2024-02-15T15:53:06;16.90;99.90
16485;DHT22;8353;47.856;12.344;2024-02-15T15:55:38;16.70;99.90
16485;DHT22;8353;47.856;12.344;2024-02-15T15:58:09;16.60;99.90
16485;DHT22;8353;47.856;12.344;2024-02-15T16:00:39;16.50;99.90
16485;DHT22;8353;47.856;12.344;2024-02-15T16:03:10;16.50;99.90
16485;DHT22;8353;47.856;12.344;2024-02-15T16:05:41;16.40;99.90